Time;durP1;ratioP1;P1;durP2;ratioP2;P2;SDS_P1;SDS_P2;PMS_P1;PMS_P2;Temp;Humidity;BMP_temperature;BMP_pressure;BME280_temperature;BME280_humidity;BME280_pressure;Samples;Min_cycle;Max_cycle;Signal;HPM_P1;HPM_P2
2023/03/01 00:01:19;;;;;;;7.15;1.65;;;;;;;5.44;100.00;103376.41;4930807;29;20059;-82
2023/03/01 00:03:46;;;;;;;6.03;2.05;;;;;;;5.39;100.00;103365.88;4932924;29;20048;-83
2023/03/01 00:06:12;;;;;;;4.40;1.58;;;;;;;5.20;100.00;103353.25;4932749;29;20055;-83
2023/03/01 00:08:40;;;;;;;5.07;1.42;;;;;;;5.56;100.00;103396.59;4931559;29;20047;-82
2023/03/01 00:11:14;;;;;;;6.57;1.60;;;;;;;5.79;100.00;103421.50;4931562;29;20066;-83
2023/03/01 00:13:42;;;;;;;8.20;2.25;;;;;;;5.57;100.00;103407.03;4931256;29;20058;-83
2023/03/01 00:16:18;;;;;;;6.05;1.83;;;;;;;5.64;100.00;103434.09;4940773;29;20052;-82
2023/03/01 00:18:45;;;;;;;10.48;2.83;;;;;;;5.20;100.00;103379.22;4933179;28;20072;-82
2023/03/01 00:21:12;;;;;;;13.40;3.10;;;;;;;5.25;100.00;103372.44;4928445;29;20075;-82
2023/03/01 00:23:39;;;;;;;9.07;2.22;;;;;;;5.59;100.00;103418.34;4931383;29;20056;-83
2023/03/01 00:26:09;;;;;;;9.50;2.72;;;;;;;5.44;100.00;103416.25;4933026;29;20461;-82
2023/03/01 00:28:35;;;;;;;8.02;1.90;;;;;;;5.13;100.00;103372.97;4932106;29;20055;-82
2023/03/01 00:31:07;;;;;;;5.90;1.60;;;;;;;5.57;100.00;103424.38;4924845;29;20105;-82
2023/03/01 00:33:34;;;;;;;7.60;2.17;;;;;;;5.25;100.00;103368.09;4932102;29;20386;-83
2023/03/01 00:36:01;;;;;;;12.60;1.75;;;;;;;5.59;100.00;103415.75;4933052;29;20051;-83
2023/03/01 00:38:28;;;;;;;7.50;1.77;;;;;;;5.49;100.00;103422.44;4931907;29;20489;-82
2023/03/01 00:40:55;;;;;;;7.00;1.65;;;;;;;5.41;100.00;103412.69;4947056;28;20051;-84
2023/03/01 00:43:22;;;;;;;5.40;1.63;;;;;;;4.99;100.00;103337.97;4931303;29;20052;-83
2023/03/01 00:45:49;;;;;;;5.82;1.60;;;;;;;5.19;100.00;103383.53;4930787;29;20051;-82
2023/03/01 00:48:15;;;;;;;10.18;1.80;;;;;;;5.00;100.00;103363.09;4931642;29;20043;-83
2023/03/01 00:50:42;;;;;;;5.80;1.52;;;;;;;4.80;100.00;103342.66;4930944;29;20489;-81
2023/03/01 00:53:34;;;;;;;5.28;1.70;;;;;;;5.05;100.00;103377.09;4967109;28;20136;-83
2023/03/01 00:56:26;;;;;;;5.10;1.50;;;;;;;4.97;100.00;103357.81;4919211;29;20047;-83
2023/03/01 00:58:52;;;;;;;6.28;1.70;;;;;;;4.55;100.00;103348.81;4931842;29;20056;-82
2023/03/01 01:01:27;;;;;;;7.18;1.90;;;;;;;4.64;100.00;103364.69;4930817;28;20056;-83
2023/03/01 01:03:58;;;;;;;5.10;1.40;;;;;;;4.74;100.00;103348.53;4931488;29;20056;-83
2023/03/01 01:06:37;;;;;;;5.07;1.70;;;;;;;4.53;100.00;103324.56;4931276;29;20056;-82
2023/03/01 01:09:06;;;;;;;4.78;1.50;;;;;;;4.88;100.00;103387.88;4930752;29;20058;-82
2023/03/01 01:11:36;;;;;;;2.38;1.20;;;;;;;4.55;100.00;103335.84;4932183;28;20389;-82
2023/03/01 01:14:03;;;;;;;4.15;1.45;;;;;;;4.68;100.00;103342.31;4931700;29;20058;-84
2023/03/01 01:16:30;;;;;;;5.00;1.50;;;;;;;4.68;100.00;103337.13;4930864;29;20059;-83
2023/03/01 01:18:57;;;;;;;5.70;1.60;;;;;;;4.28;100.00;103294.44;4919010;28;20059;-83
2023/03/01 01:21:29;;;;;;;9.15;1.63;;;;;;;4.75;100.00;103373.66;4930666;28;20048;-82
2023/03/01 01:23:57;;;;;;;4.55;1.50;;;;;;;4.50;100.00;103332.28;4933711;29;20106;-83
2023/03/01 01:26:26;;;;;;;3.05;1.40;;;;;;;4.48;100.00;103347.78;4934380;29;20178;-82
2023/03/01 01:28:53;;;;;;;3.75;1.45;;;;;;;4.63;100.00;103351.66;4934617;29;20044;-83
2023/03/01 01:31:23;;;;;;;8.68;1.50;;;;;;;4.48;100.00;103336.50;4934910;29;20051;-82
2023/03/01 01:33:50;;;;;;;5.40;1.50;;;;;;;4.27;100.00;103321.22;4954580;28;20093;-82
2023/03/01 01:36:17;;;;;;;4.57;1.20;;;;;;;3.97;100.00;103273.66;4935857;28;20055;-83
2023/03/01 01:38:44;;;;;;;5.97;1.50;;;;;;;4.03;100.00;103305.78;4931535;28;20052;-82
2023/03/01 01:41:13;;;;;;;5.47;1.50;;;;;;;4.25;100.00;103315.09;4934030;28;20052;-82
2023/03/01 01:43:42;;;;;;;3.40;1.20;;;;;;;4.44;100.00;103345.06;4935591;28;20532;-83
2023/03/01 01:46:23;;;;;;;6.78;1.50;;;;;;;4.33;100.00;103318.78;4936626;28;20047;-83
2023/03/01 01:49:07;;;;;;;3.08;1.30;;;;;;;3.91;100.00;103273.47;4934457;28;20700;-82
2023/03/01 01:51:40;;;;;;;3.08;1.35;;;;;;;4.31;100.00;103323.94;4933845;28;20516;-83
2023/03/01 01:54:20;;;;;;;4.72;1.50;;;;;;;4.08;100.00;103289.53;4930488;29;20047;-82
2023/03/01 01:56:54;;;;;;;2.58;1.10;;;;;;;3.87;100.00;103263.84;4933721;29;20048;-82
2023/03/01 01:59:24;;;;;;;3.92;1.30;;;;;;;3.88;100.00;103238.78;4955270;28;20062;-82
2023/03/01 02:01:54;;;;;;;3.75;1.40;;;;;;;4.15;100.00;103283.69;4948820;28;20621;-82
2023/03/01 02:04:22;;;;;;;3.50;1.30;;;;;;;4.21;100.00;103300.28;4933560;29;20055;-82
2023/03/01 02:07:19;;;;;;;3.75;1.20;;;;;;;4.25;100.00;103305.59;4933890;29;20069;-83
2023/03/01 02:09:49;;;;;;;3.05;1.40;;;;;;;4.01;100.00;103253.88;4933277;29;20058;-82
2023/03/01 02:12:18;;;;;;;4.43;1.40;;;;;;;4.07;100.00;103274.81;4933132;28;20047;-83
2023/03/01 02:14:45;;;;;;;3.58;1.20;;;;;;;4.08;100.00;103276.56;4937347;28;20054;-83
2023/03/01 02:17:15;;;;;;;2.58;1.27;;;;;;;4.14;100.00;103276.75;4933620;29;20046;-83
2023/03/01 02:20:06;;;;;;;3.63;1.20;;;;;;;4.26;100.00;103311.66;4931565;29;20051;-83
2023/03/01 02:22:36;;;;;;;2.72;1.30;;;;;;;4.07;100.00;103276.50;4973378;28;20042;-82
2023/03/01 02:25:18;;;;;;;4.63;1.95;;;;;;;4.28;100.00;103297.03;4955361;28;20391;-82
2023/03/01 02:28:15;;;;;;;2.75;1.23;;;;;;;4.26;100.00;103301.28;4933788;29;20481;-82
2023/03/01 02:33:32;;;;;;;4.75;1.30;;;;;;;4.16;100.00;103281.97;4933332;29;20408;-82
2023/03/01 02:36:04;;;;;;;3.20;1.15;;;;;;;3.95;100.00;103267.53;4933003;29;20087;-82
2023/03/01 02:38:32;;;;;;;5.43;1.85;;;;;;;3.79;100.00;103271.38;4933340;29;20052;-83
2023/03/01 02:41:01;;;;;;;5.50;1.55;;;;;;;3.95;100.00;103311.63;4940841;28;20052;-83
2023/03/01 02:43:31;;;;;;;6.95;1.42;;;;;;;3.93;100.00;103270.91;4934044;28;20048;-83
2023/03/01 02:46:03;;;;;;;2.97;1.48;;;;;;;4.15;100.00;103295.78;4936749;29;20063;-82
2023/03/01 02:48:44;;;;;;;7.07;1.40;;;;;;;4.23;100.00;103307.25;4933352;29;20436;-83
2023/03/01 02:51:34;;;;;;;2.28;1.20;;;;;;;4.38;100.00;103314.63;4924028;29;20092;-83
2023/03/01 02:54:28;;;;;;;4.57;1.30;;;;;;;4.04;100.00;103271.22;4932567;28;20416;-83
2023/03/01 02:56:55;;;;;;;;;;;;;;;4.48;100.00;103302.78;4933546;29;20464;-83
2023/03/01 02:59:38;;;;;;;3.55;1.20;;;;;;;4.45;100.00;103288.03;4933196;29;19935;-82
2023/03/01 03:02:35;;;;;;;14.07;1.70;;;;;;;4.41;100.00;103296.56;4921202;29;20382;-83
2023/03/01 03:05:13;;;;;;;5.22;1.23;;;;;;;4.28;100.00;103256.41;4946442;29;20056;-83
2023/03/01 03:07:42;;;;;;;2.63;1.10;;;;;;;4.21;100.00;103259.66;4957599;28;20047;-82
2023/03/01 03:10:14;;;;;;;7.78;1.98;;;;;;;4.52;100.00;103289.97;4948165;29;20066;-82
2023/03/01 03:12:41;;;;;;;6.47;1.40;;;;;;;4.53;100.00;103281.34;4939984;29;20048;-83
2023/03/01 03:15:12;;;;;;;8.10;1.52;;;;;;;4.58;100.00;103281.47;4934037;28;20048;-83
2023/03/01 03:17:40;;;;;;;7.28;1.55;;;;;;;4.41;100.00;103269.72;4934763;29;20088;-83
2023/03/01 03:20:11;;;;;;;3.33;1.38;;;;;;;4.18;100.00;103231.94;4928764;29;20063;-82
2023/03/01 03:22:39;;;;;;;5.88;1.38;;;;;;;4.18;100.00;103244.91;4933824;28;20098;-82
2023/03/01 03:25:11;;;;;;;5.40;1.42;;;;;;;4.51;100.00;103274.34;4933717;29;20109;-82
2023/03/01 03:27:39;;;;;;;4.60;1.45;;;;;;;4.27;100.00;103251.19;4933266;29;20496;-82
2023/03/01 03:30:09;;;;;;;5.85;1.50;;;;;;;4.26;100.00;103255.47;4932949;29;20051;-83
2023/03/01 03:32:36;;;;;;;3.58;1.48;;;;;;;4.07;100.00;103235.03;4933851;29;20046;-82
2023/03/01 03:35:11;;;;;;;11.73;2.47;;;;;;;3.99;100.00;103211.47;4932557;29;20048;-83
2023/03/01 03:40:25;;;;;;;6.45;1.55;;;;;;;4.31;100.00;103245.25;4926003;29;20730;-82
2023/03/01 03:42:52;;;;;;;4.38;1.63;;;;;;;4.04;100.00;103243.63;4948825;28;20048;-82
2023/03/01 03:45:19;;;;;;;3.97;1.42;;;;;;;3.93;100.00;103208.69;4936109;29;20055;-82
2023/03/01 03:47:45;;;;;;;3.60;1.33;;;;;;;4.23;100.00;103255.38;4935851;29;20047;-82
2023/03/01 03:50:14;;;;;;;5.18;1.50;;;;;;;4.35;100.00;103267.84;4926119;29;20052;-82
2023/03/01 03:52:41;;;;;;;5.50;1.27;;;;;;;4.37;100.00;103253.19;4931126;29;20051;-82
2023/03/01 03:55:11;;;;;;;5.65;1.50;;;;;;;4.56;100.00;103259.78;4932241;28;20059;-81
2023/03/01 03:57:42;;;;;;;4.22;1.23;;;;;;;4.41;100.00;103230.81;4933757;28;20052;-82
2023/03/01 04:00:12;;;;;;;3.80;1.50;;;;;;;4.62;100.00;103253.88;4928928;29;20055;-82
2023/03/01 04:02:43;;;;;;;4.35;1.40;;;;;;;4.32;100.00;103214.19;4933234;29;20134;-82
2023/03/01 04:05:14;;;;;;;2.40;1.20;;;;;;;4.64;100.00;103259.97;4931731;28;20052;-82
2023/03/01 04:07:42;;;;;;;5.32;1.50;;;;;;;4.25;100.00;103186.31;4937002;28;20043;-82
2023/03/01 04:10:17;;;;;;;4.85;1.25;;;;;;;4.69;100.00;103254.09;4931704;29;20055;-82
2023/03/01 04:12:44;;;;;;;4.85;1.60;;;;;;;4.42;100.00;103251.59;4948596;28;20044;-82
2023/03/01 04:15:14;;;;;;;3.38;1.40;;;;;;;4.46;100.00;103253.47;4931994;29;20051;-82
2023/03/01 04:17:46;;;;;;;4.72;1.20;;;;;;;4.40;100.00;103227.34;4932423;29;20048;-82
2023/03/01 04:20:17;;;;;;;6.00;1.58;;;;;;;4.26;100.00;103207.94;4920431;29;20056;-83
2023/03/01 04:22:47;;;;;;;8.90;2.03;;;;;;;4.48;100.00;103241.41;4918843;28;20048;-82
2023/03/01 04:25:14;;;;;;;4.97;1.42;;;;;;;4.12;100.00;103176.41;4930986;29;20059;-82
2023/03/01 04:27:41;;;;;;;5.47;1.60;;;;;;;4.40;100.00;103236.84;4933141;29;20048;-82
2023/03/01 04:30:08;;;;;;;6.40;1.70;;;;;;;4.18;100.00;103190.44;4926426;29;20052;-82
2023/03/01 04:32:35;;;;;;;7.32;1.70;;;;;;;4.04;100.00;103151.97;4928936;29;20043;-82
2023/03/01 04:35:02;;;;;;;4.35;1.35;;;;;;;4.58;100.00;103242.53;4932420;29;20130;-82
2023/03/01 04:37:29;;;;;;;4.75;1.45;;;;;;;4.46;100.00;103221.44;4943333;29;20051;-82
2023/03/01 04:39:56;;;;;;;3.92;1.52;;;;;;;4.35;100.00;103187.44;4928676;29;20406;-83
2023/03/01 04:42:23;;;;;;;2.33;1.35;;;;;;;4.27;100.00;103187.22;4926484;28;20055;-82
2023/03/01 04:44:51;;;;;;;3.08;1.20;;;;;;;4.14;100.00;103149.72;4918677;28;20059;-82
2023/03/01 04:47:17;;;;;;;2.58;1.10;;;;;;;4.17;100.00;103165.31;4932586;29;20063;-81
2023/03/01 04:49:44;;;;;;;5.25;1.17;;;;;;;4.32;100.00;103146.75;4930375;29;20425;-82
2023/03/01 04:52:11;;;;;;;5.45;2.05;;;;;;;4.59;100.00;103199.31;4922435;29;20044;-82
2023/03/01 04:54:37;;;;;;;6.47;1.88;;;;;;;4.72;100.00;103215.25;4932625;28;20056;-82
2023/03/01 04:57:04;;;;;;;4.25;1.13;;;;;;;4.57;100.00;103192.38;4931675;29;20059;-82
2023/03/01 04:59:31;;;;;;;7.40;1.33;;;;;;;4.72;100.00;103191.88;4930932;28;20708;-82
2023/03/01 05:01:57;;;;;;;3.10;1.40;;;;;;;4.72;100.00;103183.22;4943082;28;20374;-82
2023/03/01 05:04:24;;;;;;;2.63;1.23;;;;;;;4.85;100.00;103218.16;4931937;29;20516;-82
2023/03/01 05:06:53;;;;;;;5.82;1.30;;;;;;;4.54;100.00;103165.47;4929884;29;20126;-82
2023/03/01 05:09:20;;;;;;;3.17;1.20;;;;;;;4.78;100.00;103195.47;4931908;29;20082;-83
2023/03/01 05:11:46;;;;;;;5.15;1.23;;;;;;;4.53;100.00;103156.81;4928617;29;20048;-82
2023/03/01 05:14:13;;;;;;;5.53;1.40;;;;;;;4.62;100.00;103152.69;4930594;29;20058;-82
2023/03/01 05:16:40;;;;;;;2.45;1.10;;;;;;;4.93;100.00;103201.06;4941800;28;20101;-82
2023/03/01 05:19:14;;;;;;;4.90;1.40;;;;;;;4.78;100.00;103177.31;4931164;28;20051;-82
2023/03/01 05:24:29;;;;;;;3.85;1.30;;;;;;;5.01;100.00;103224.63;4931664;29;20051;-82
2023/03/01 05:26:56;;;;;;;5.40;1.40;;;;;;;5.01;100.00;103227.22;4932148;29;20066;-82
2023/03/01 05:29:25;;;;;;;4.55;1.40;;;;;;;4.62;100.00;103147.50;4932252;28;20485;-82
2023/03/01 05:31:57;;;;;;;5.75;2.17;;;;;;;4.92;100.00;103215.78;4931181;29;20493;-83
2023/03/01 05:34:33;;;;;;;3.65;1.58;;;;;;;4.86;100.00;103199.16;4932412;29;20048;-82
2023/03/01 05:37:01;;;;;;;6.13;1.60;;;;;;;5.04;100.00;103219.50;4943429;28;20049;-83
2023/03/01 05:39:29;;;;;;;3.80;1.52;;;;;;;5.07;100.00;103241.25;4930531;29;20052;-82
2023/03/01 05:41:58;;;;;;;5.50;1.60;;;;;;;5.01;100.00;103235.91;4931039;29;20390;-82
2023/03/01 05:44:25;;;;;;;5.68;1.50;;;;;;;4.62;100.00;103147.50;4932179;28;20043;-82
2023/03/01 05:46:52;;;;;;;6.88;1.60;;;;;;;4.57;100.00;103160.38;4933559;29;20052;-83
2023/03/01 05:49:19;;;;;;;6.05;1.70;;;;;;;4.68;100.00;103168.41;4930643;29;20051;-82
2023/03/01 05:51:51;;;;;;;4.57;1.60;;;;;;;5.10;100.00;103225.75;4921722;29;20052;-83
2023/03/01 05:54:20;;;;;;;3.80;1.48;;;;;;;5.04;100.00;103227.31;4930730;29;20044;-82
2023/03/01 05:56:47;;;;;;;7.50;1.80;;;;;;;4.82;100.00;103197.34;4930655;29;20055;-83
2023/03/01 05:59:16;;;;;;;6.60;1.65;;;;;;;4.81;100.00;103178.25;4930384;28;20048;-83
2023/03/01 06:01:43;;;;;;;6.47;1.70;;;;;;;5.03;100.00;103221.25;4929423;29;20110;-83
2023/03/01 06:04:10;;;;;;;6.18;1.60;;;;;;;5.22;100.00;103239.88;4930477;29;20086;-83
2023/03/01 06:06:39;;;;;;;6.28;1.40;;;;;;;5.31;100.00;103240.09;4932116;29;20059;-83
2023/03/01 06:09:09;;;;;;;5.32;1.83;;;;;;;5.27;100.00;103236.53;4933262;29;20043;-83
2023/03/01 06:11:36;;;;;;;3.60;1.35;;;;;;;5.14;100.00;103195.53;4935073;29;20063;-83
2023/03/01 06:14:06;;;;;;;7.82;1.90;;;;;;;5.05;100.00;103200.50;4934088;28;20552;-83
2023/03/01 06:16:33;;;;;;;4.32;1.55;;;;;;;5.29;100.00;103229.69;4946726;28;20473;-82
2023/03/01 06:18:59;;;;;;;4.35;1.60;;;;;;;5.14;100.00;103224.97;4933516;29;20445;-83
2023/03/01 06:21:26;;;;;;;8.23;1.42;;;;;;;5.10;100.00;103201.50;4936850;28;20052;-84
2023/03/01 06:23:53;;;;;;;5.78;1.63;;;;;;;4.89;100.00;103200.13;4934178;29;20056;-82
2023/03/01 06:26:20;;;;;;;4.18;1.50;;;;;;;5.11;100.00;103211.91;4935169;29;20052;-83
2023/03/01 06:28:46;;;;;;;5.47;1.45;;;;;;;4.95;100.00;103197.66;4933592;28;20056;-82
2023/03/01 06:31:13;;;;;;;3.53;1.45;;;;;;;4.93;100.00;103188.97;4928640;29;20478;-82
2023/03/01 06:33:43;;;;;;;7.63;2.10;;;;;;;5.02;100.00;103235.06;4933424;29;20052;-82
2023/03/01 06:36:10;;;;;;;4.90;1.58;;;;;;;4.93;100.00;103201.06;4943629;29;20058;-82
2023/03/01 06:38:36;;;;;;;5.80;1.63;;;;;;;4.83;100.00;103192.16;4942147;29;20108;-82
2023/03/01 06:41:03;;;;;;;7.53;1.88;;;;;;;4.90;100.00;103175.88;4931218;28;20509;-83
2023/03/01 06:43:30;;;;;;;5.50;1.30;;;;;;;5.14;100.00;103193.81;4929410;28;20052;-83
2023/03/01 06:45:57;;;;;;;7.38;1.52;;;;;;;5.11;100.00;103183.34;4938251;29;20126;-83
2023/03/01 06:48:24;;;;;;;4.38;1.42;;;;;;;5.02;100.00;103223.78;4940544;28;20062;-82
2023/03/01 06:50:50;;;;;;;3.83;1.30;;;;;;;4.91;100.00;103194.97;4942282;29;20086;-83
2023/03/01 06:53:17;;;;;;;3.17;1.25;;;;;;;5.02;100.00;103190.91;4936841;29;20127;-84
2023/03/01 06:55:44;;;;;;;2.08;1.10;;;;;;;5.31;100.00;103220.19;4939084;28;20048;-83
2023/03/01 06:58:11;;;;;;;2.80;1.20;;;;;;;5.16;100.00;103200.78;4935196;28;20052;-84
2023/03/01 07:00:39;;;;;;;3.35;1.27;;;;;;;5.30;100.00;103215.84;4932724;28;20058;-84
2023/03/01 07:03:06;;;;;;;3.00;1.27;;;;;;;5.31;100.00;103211.50;4934452;28;20054;-84
2023/03/01 07:05:33;;;;;;;10.13;1.45;;;;;;;5.14;100.00;103224.97;4946152;28;20044;-84
2023/03/01 07:08:00;;;;;;;3.88;1.13;;;;;;;5.24;100.00;103215.69;4939579;28;20052;-84
2023/03/01 07:10:27;;;;;;;4.47;1.30;;;;;;;5.37;100.00;103235.06;4936992;29;20052;-84
2023/03/01 07:12:56;;;;;;;2.88;1.23;;;;;;;5.05;100.00;103190.13;4942895;28;20056;-84
2023/03/01 07:15:23;;;;;;;5.15;1.40;;;;;;;5.29;100.00;103241.78;4949849;28;20098;-84
2023/03/01 07:17:50;;;;;;;6.05;1.23;;;;;;;5.13;100.00;103245.72;4930885;29;20055;-84
2023/03/01 07:20:21;;;;;;;5.53;1.23;;;;;;;4.94;100.00;103174.28;4926897;29;20055;-84
2023/03/01 07:22:48;;;;;;;6.47;1.30;;;;;;;5.01;100.00;103196.97;4940284;28;20059;-85
2023/03/01 07:25:14;;;;;;;2.65;1.10;;;;;;;5.27;100.00;103228.75;4937776;29;20051;-85
2023/03/01 07:27:41;;;;;;;3.42;1.50;;;;;;;5.22;100.00;103209.56;4941018;29;20047;-84
2023/03/01 07:30:09;;;;;;;5.15;1.15;;;;;;;4.92;100.00;103173.34;4929836;28;20052;-84
2023/03/01 07:32:36;;;;;;;5.20;1.00;;;;;;;5.10;100.00;103228.34;4934144;29;20134;-84
2023/03/01 07:35:03;;;;;;;3.97;1.20;;;;;;;5.00;100.00;103196.91;4939764;28;20050;-84
2023/03/01 07:37:29;;;;;;;1.88;1.00;;;;;;;5.20;100.00;103206.06;4933147;29;20055;-84
2023/03/01 07:39:57;;;;;;;4.47;1.30;;;;;;;5.25;100.00;103220.03;4929729;28;20087;-84
2023/03/01 07:42:24;;;;;;;5.60;1.40;;;;;;;5.19;100.00;103188.72;4934530;29;20496;-84
2023/03/01 07:44:50;;;;;;;3.03;1.20;;;;;;;5.28;100.00;103229.66;4932380;29;20048;-84
2023/03/01 07:47:17;;;;;;;5.43;2.10;;;;;;;5.33;100.00;103208.13;4934222;28;20055;-83
2023/03/01 07:49:44;;;;;;;3.65;1.10;;;;;;;5.25;100.00;103194.06;4933319;29;20059;-84
2023/03/01 07:52:11;;;;;;;2.58;1.20;;;;;;;5.26;100.00;103194.97;4934868;29;20656;-84
2023/03/01 07:54:38;;;;;;;6.50;1.30;;;;;;;5.53;100.00;103210.31;4934465;29;20048;-84
2023/03/01 07:57:05;;;;;;;4.57;1.15;;;;;;;5.25;100.00;103185.41;4934132;29;20055;-85
2023/03/01 07:59:33;;;;;;;7.13;1.27;;;;;;;5.68;100.00;103256.56;4973790;28;20487;-85
2023/03/01 08:02:00;;;;;;;4.05;1.10;;;;;;;5.40;100.00;103226.44;4934428;28;20067;-85
2023/03/01 08:04:26;;;;;;;10.77;1.48;;;;;;;5.31;100.00;103220.19;4933180;28;20056;-84
2023/03/01 08:06:54;;;;;;;4.50;1.30;;;;;;;5.37;100.00;103205.59;4932927;28;20055;-84
2023/03/01 08:09:22;;;;;;;3.50;1.30;;;;;;;5.30;100.00;103214.97;4978470;28;20124;-84
2023/03/01 08:11:49;;;;;;;4.20;1.30;;;;;;;5.33;100.00;103244.50;4931588;28;20055;-85
2023/03/01 08:14:16;;;;;;;4.35;1.60;;;;;;;5.06;100.00;103187.53;4933692;28;20047;-84
2023/03/01 08:16:42;;;;;;;4.13;1.33;;;;;;;5.06;100.00;103187.53;4934655;28;20059;-85
2023/03/01 08:19:12;;;;;;;7.82;1.38;;;;;;;5.31;100.00;103240.09;4934354;29;20412;-84
2023/03/01 08:21:38;;;;;;;5.60;1.60;;;;;;;5.16;100.00;103185.19;4929789;29;20052;-85
2023/03/01 08:24:06;;;;;;;4.65;1.35;;;;;;;5.42;100.00;103194.47;4932825;29;20047;-85
2023/03/01 08:26:33;;;;;;;4.65;1.50;;;;;;;5.43;100.00;103218.72;4933292;29;20400;-85
2023/03/01 08:29:01;;;;;;;4.03;1.50;;;;;;;5.28;100.00;103194.13;4935071;29;20056;-85
2023/03/01 08:31:39;;;;;;;4.80;1.52;;;;;;;5.32;100.00;103177.78;4930050;29;20493;-84
2023/03/01 08:34:13;;;;;;;3.58;1.35;;;;;;;5.63;100.00;103239.97;4935002;29;20387;-85
2023/03/01 08:36:42;;;;;;;4.70;1.60;;;;;;;5.66;100.00;103255.66;4934831;29;20101;-84
2023/03/01 08:39:11;;;;;;;4.97;1.30;;;;;;;5.80;100.00;103249.03;4934536;29;20469;-85
2023/03/01 08:41:39;;;;;;;4.88;1.40;;;;;;;5.41;100.00;103204.81;4928234;28;20051;-85
2023/03/01 08:44:06;;;;;;;4.72;1.40;;;;;;;5.84;100.00;103245.69;4936470;28;20389;-85
2023/03/01 08:46:40;;;;;;;3.55;1.38;;;;;;;5.35;100.00;103181.28;4934703;28;20059;-85
2023/03/01 08:49:12;;;;;;;6.75;1.40;;;;;;;5.46;100.00;103185.03;4933994;28;20067;-84
2023/03/01 08:51:39;;;;;;;5.50;1.60;;;;;;;5.64;100.00;103195.81;4933473;28;20060;-84
2023/03/01 08:54:10;;;;;;;4.85;1.67;;;;;;;5.88;100.00;103221.50;4934330;29;20309;-85
2023/03/01 08:56:38;;;;;;;6.90;1.85;;;;;;;5.55;100.00;103176.56;4934035;29;20078;-84
2023/03/01 08:59:05;;;;;;;5.70;1.63;;;;;;;5.88;100.00;103187.69;4943464;29;20058;-84
2023/03/01 09:01:32;;;;;;;6.45;1.55;;;;;;;6.80;100.00;103258.94;4936139;28;20052;-85
2023/03/01 09:03:59;;;;;;;5.53;1.48;;;;;;;6.15;100.00;103211.69;4934164;29;20048;-85
2023/03/01 09:06:26;;;;;;;5.65;1.50;;;;;;;6.53;100.00;103247.97;4939521;28;20079;-85
2023/03/01 09:08:52;;;;;;;5.50;1.70;;;;;;;6.30;100.00;103237.13;4933502;29;20048;-85
2023/03/01 09:11:21;;;;;;;8.15;2.03;;;;;;;6.04;100.00;103172.44;4931834;29;20394;-84
2023/03/01 09:13:48;;;;;;;3.58;1.38;;;;;;;6.16;100.00;103214.31;4933273;29;20147;-85
2023/03/01 09:16:17;;;;;;;5.05;1.35;;;;;;;6.41;100.00;103249.50;4925760;29;20056;-85
2023/03/01 09:18:45;;;;;;;5.15;2.75;;;;;;;6.37;100.00;103218.19;4934447;29;20044;-85
2023/03/01 09:21:15;;;;;;;5.47;1.50;;;;;;;6.31;100.00;103244.97;4930024;28;20051;-84
2023/03/01 09:23:46;;;;;;;3.45;1.20;;;;;;;6.29;100.00;103251.00;4933175;29;20517;-84
2023/03/01 09:26:16;;;;;;;4.13;1.30;;;;;;;6.45;100.00;103235.69;4936151;29;20058;-85
2023/03/01 09:28:46;;;;;;;6.53;1.30;;;;;;;6.15;100.00;103186.53;4934072;29;20054;-86
2023/03/01 09:31:13;;;;;;;5.20;1.38;;;;;;;5.85;100.00;103189.34;4931451;29;20052;-85
2023/03/01 09:33:41;;;;;;;8.27;1.30;;;;;;;6.29;100.00;103241.44;4932822;28;20497;-85
2023/03/01 09:36:12;;;;;;;10.13;1.63;;;;;;;6.24;100.00;103211.84;4933441;29;20493;-85
2023/03/01 09:38:39;;;;;;;8.13;1.55;;;;;;;6.23;100.00;103169.38;4932742;29;20052;-85
2023/03/01 09:41:25;;;;;;;5.50;1.42;;;;;;;6.77;100.00;103247.59;4935641;29;20047;-84
2023/03/01 09:43:57;;;;;;;7.70;1.95;;;;;;;6.86;100.00;103215.63;4934795;29;20524;-85
2023/03/01 09:46:26;;;;;;;9.48;1.58;;;;;;;6.67;100.00;103204.88;4936216;28;20059;-85
2023/03/01 09:49:10;;;;;;;5.05;1.40;;;;;;;6.61;100.00;103173.53;4935903;29;20063;-85
2023/03/01 09:51:37;;;;;;;10.95;1.50;;;;;;;6.43;100.00;103179.28;4927121;29;20046;-85
2023/03/01 09:54:08;;;;;;;6.28;1.45;;;;;;;7.13;100.00;103251.69;4937085;29;20123;-85
2023/03/01 09:56:37;;;;;;;4.45;1.30;;;;;;;6.91;100.00;103248.72;4934751;28;20047;-85
2023/03/01 09:59:22;;;;;;;3.60;1.23;;;;;;;7.05;100.00;103238.53;4936745;29;20052;-85
2023/03/01 10:01:57;;;;;;;5.13;1.40;;;;;;;7.10;100.00;103242.09;4935697;29;20083;-85
2023/03/01 10:04:48;;;;;;;6.53;1.50;;;;;;;6.99;100.00;103228.91;4936764;29;20051;-85
2023/03/01 10:07:32;;;;;;;7.10;1.20;;;;;;;6.94;100.00;103235.75;4948877;28;20048;-85
2023/03/01 10:10:00;;;;;;;5.85;1.30;;;;;;;6.92;100.00;103181.84;4935695;29;20063;-85
2023/03/01 10:12:40;;;;;;;6.28;2.00;;;;;;;7.29;100.00;103234.56;4936285;29;20059;-85
2023/03/01 10:15:12;;;;;;;4.75;2.03;;;;;;;7.37;100.00;103225.16;4920179;29;20051;-85
2023/03/01 10:17:57;;;;;;;6.60;1.50;;;;;;;7.26;100.00;103195.44;4948178;29;20056;-85
2023/03/01 10:20:30;;;;;;;5.35;1.40;;;;;;;7.18;100.00;103174.47;4930961;29;20080;-85
2023/03/01 10:22:57;;;;;;;4.53;1.52;;;;;;;7.12;100.00;103193.50;4935672;28;20048;-84
2023/03/01 10:25:42;;;;;;;8.18;1.33;;;;;;;7.31;100.00;103227.66;4948066;29;20385;-85
2023/03/01 10:28:24;;;;;;;9.65;1.73;;;;;;;7.15;100.00;103214.41;4927442;28;20043;-85
2023/03/01 10:30:52;;;;;;;3.25;1.25;;;;;;;7.27;100.00;103203.28;4935508;29;20048;-86
2023/03/01 10:33:30;;;;;;;4.57;1.50;;;;;;;7.28;100.00;103228.50;4934812;29;20105;-85
2023/03/01 10:35:57;;;;;;;4.85;1.50;;;;;;;7.16;100.00;103179.66;4931094;28;20052;-86
2023/03/01 10:38:25;;;;;;;7.35;1.88;;;;;;;7.09;100.00;103193.44;4935879;28;20063;-86
2023/03/01 10:41:08;;;;;;;8.82;1.80;;;;;;;7.44;100.00;103227.00;4934016;28;20062;-85
2023/03/01 10:43:45;;;;;;;4.63;1.45;;;;;;;7.72;100.00;103222.16;4935266;29;20056;-85
2023/03/01 10:46:30;;;;;;;7.00;2.10;;;;;;;7.19;100.00;103190.13;4927005;29;20067;-85
2023/03/01 10:49:19;;;;;;;5.38;1.48;;;;;;;7.49;100.00;103212.31;4934861;29;20047;-85
2023/03/01 10:51:49;;;;;;;7.88;1.60;;;;;;;7.52;100.00;103221.88;4925777;29;20052;-85
2023/03/01 10:54:27;;;;;;;5.28;1.45;;;;;;;7.18;100.00;103180.53;4933244;29;20068;-84
2023/03/01 10:57:03;;;;;;;8.50;1.75;;;;;;;6.82;100.00;103173.91;4923269;29;20055;-84
2023/03/01 10:59:38;;;;;;;8.85;1.50;;;;;;;7.22;100.00;103199.72;4935441;29;20058;-85
2023/03/01 11:02:27;;;;;;;9.00;1.40;;;;;;;7.25;100.00;103228.44;4930984;29;20047;-85
2023/03/01 11:05:12;;;;;;;8.02;1.50;;;;;;;7.12;100.00;103221.25;4939083;28;20055;-85
2023/03/01 11:07:51;;;;;;;6.18;1.85;;;;;;;6.75;100.00;103139.94;4935870;28;20060;-85
2023/03/01 11:10:33;;;;;;;7.13;2.03;;;;;;;6.82;100.00;103180.84;4929000;28;20716;-86
2023/03/01 11:13:19;;;;;;;6.22;1.70;;;;;;;6.81;100.00;103212.94;4935537;29;20052;-85
2023/03/01 11:16:01;;;;;;;7.45;2.05;;;;;;;6.79;100.00;103207.69;4923546;29;20040;-85
2023/03/01 11:18:30;;;;;;;5.60;1.55;;;;;;;7.02;100.00;103202.88;4933362;29;20060;-86
2023/03/01 11:21:15;;;;;;;9.10;2.03;;;;;;;7.07;100.00;103161.28;4936171;29;20634;-85
2023/03/01 11:23:45;;;;;;;9.73;2.33;;;;;;;7.30;100.00;103161.63;4934594;29;20405;-85
2023/03/01 11:26:13;;;;;;;12.23;4.00;;;;;;;7.71;100.00;103137.00;4933784;29;20079;-85
2023/03/01 11:28:42;;;;;;;4.60;1.50;;;;;;;7.33;100.00;103108.66;4934057;29;20062;-85
2023/03/01 11:31:14;;;;;;;3.72;1.33;;;;;;;7.53;100.00;103141.09;4934536;28;20498;-85
2023/03/01 11:33:55;;;;;;;5.47;1.27;;;;;;;7.51;100.00;103178.44;4933979;29;20098;-85
2023/03/01 11:36:43;;;;;;;6.78;1.30;;;;;;;7.46;100.00;103180.09;4934289;29;20063;-86
2023/03/01 11:39:41;;;;;;;3.65;1.45;;;;;;;7.60;100.00;103174.22;4947456;28;20103;-85
2023/03/01 11:42:20;;;;;;;12.27;3.60;;;;;;;7.21;100.00;103125.03;4934487;28;20401;-85
2023/03/01 11:44:50;;;;;;;11.40;3.80;;;;;;;7.36;100.00;103139.97;4933759;29;20051;-85
2023/03/01 11:47:22;;;;;;;8.70;3.63;;;;;;;8.11;100.00;103161.81;4937324;29;20063;-85
2023/03/01 11:50:08;;;;;;;7.80;2.30;;;;;;;8.10;100.00;103162.66;4933161;29;20147;-85